sensor_id;sensor_type;location;lat;lon;timestamp;P1;durP1;ratioP1;P2;durP2;ratioP2
40154;SDS011;25875;48.202;16.334;2022-08-01T00:01:59;4.65;;;3.63;;
40154;SDS011;25875;48.202;16.334;2022-08-01T00:04:27;4.35;;;3.40;;
40154;SDS011;25875;48.202;16.334;2022-08-01T00:06:54;4.55;;;3.70;;
40154;SDS011;25875;48.202;16.334;2022-08-01T00:09:21;4.47;;;4.07;;
40154;SDS011;25875;48.202;16.334;2022-08-01T00:11:48;4.00;;;3.45;;
40154;SDS011;25875;48.202;16.334;2022-08-01T00:14:17;6.10;;;3.70;;
40154;SDS011;25875;48.202;16.334;2022-08-01T00:16:44;4.95;;;4.10;;
40154;SDS011;25875;48.202;16.334;2022-08-01T00:19:11;4.50;;;3.95;;
40154;SDS011;25875;48.202;16.334;2022-08-01T00:21:38;8.05;;;3.95;;
40154;SDS011;25875;48.202;16.334;2022-08-01T00:24:06;4.40;;;3.53;;
40154;SDS011;25875;48.202;16.334;2022-08-01T00:26:33;4.53;;;3.30;;
40154;SDS011;25875;48.202;16.334;2022-08-01T00:29:00;4.47;;;3.25;;
40154;SDS011;25875;48.202;16.334;2022-08-01T00:31:29;4.13;;;3.72;;
40154;SDS011;25875;48.202;16.334;2022-08-01T00:33:56;7.72;;;4.70;;
40154;SDS011;25875;48.202;16.334;2022-08-01T00:36:23;5.13;;;3.90;;
40154;SDS011;25875;48.202;16.334;2022-08-01T00:38:51;5.90;;;4.05;;
40154;SDS011;25875;48.202;16.334;2022-08-01T00:41:18;4.10;;;3.47;;
40154;SDS011;25875;48.202;16.334;2022-08-01T00:43:45;5.78;;;4.38;;
40154;SDS011;25875;48.202;16.334;2022-08-01T00:46:13;4.50;;;4.10;;
40154;SDS011;25875;48.202;16.334;2022-08-01T00:48:41;4.25;;;3.53;;
40154;SDS011;25875;48.202;16.334;2022-08-01T00:51:09;5.25;;;3.38;;
40154;SDS011;25875;48.202;16.334;2022-08-01T00:53:38;4.63;;;3.72;;
40154;SDS011;25875;48.202;16.334;2022-08-01T00:56:06;3.70;;;3.10;;
40154;SDS011;25875;48.202;16.334;2022-08-01T00:58:35;4.35;;;3.70;;
40154;SDS011;25875;48.202;16.334;2022-08-01T01:01:03;4.15;;;3.75;;
40154;SDS011;25875;48.202;16.334;2022-08-01T01:03:30;6.78;;;3.85;;
40154;SDS011;25875;48.202;16.334;2022-08-01T01:06:05;4.68;;;3.72;;
40154;SDS011;25875;48.202;16.334;2022-08-01T01:08:41;8.25;;;7.45;;
40154;SDS011;25875;48.202;16.334;2022-08-01T01:11:13;10.43;;;9.00;;
40154;SDS011;25875;48.202;16.334;2022-08-01T01:13:49;12.02;;;10.52;;
40154;SDS011;25875;48.202;16.334;2022-08-01T01:16:20;9.90;;;7.80;;
40154;SDS011;25875;48.202;16.334;2022-08-01T01:18:49;8.55;;;7.53;;
40154;SDS011;25875;48.202;16.334;2022-08-01T01:21:33;6.20;;;5.40;;
40154;SDS011;25875;48.202;16.334;2022-08-01T01:24:11;6.03;;;5.13;;
40154;SDS011;25875;48.202;16.334;2022-08-01T01:26:50;5.57;;;4.50;;
40154;SDS011;25875;48.202;16.334;2022-08-01T01:29:24;5.35;;;4.43;;
40154;SDS011;25875;48.202;16.334;2022-08-01T01:31:55;5.40;;;4.38;;
40154;SDS011;25875;48.202;16.334;2022-08-01T01:34:24;3.83;;;2.95;;
40154;SDS011;25875;48.202;16.334;2022-08-01T01:36:56;4.03;;;3.53;;
40154;SDS011;25875;48.202;16.334;2022-08-01T01:39:26;4.00;;;3.47;;
40154;SDS011;25875;48.202;16.334;2022-08-01T01:41:56;5.07;;;4.38;;
40154;SDS011;25875;48.202;16.334;2022-08-01T01:44:26;5.53;;;5.00;;
40154;SDS011;25875;48.202;16.334;2022-08-01T01:46:54;8.65;;;6.43;;
40154;SDS011;25875;48.202;16.334;2022-08-01T01:49:24;8.15;;;7.30;;
40154;SDS011;25875;48.202;16.334;2022-08-01T01:51:54;8.15;;;7.18;;
40154;SDS011;25875;48.202;16.334;2022-08-01T01:54:24;8.15;;;6.90;;
40154;SDS011;25875;48.202;16.334;2022-08-01T01:56:55;12.60;;;6.60;;
40154;SDS011;25875;48.202;16.334;2022-08-01T01:59:25;6.80;;;5.90;;
40154;SDS011;25875;48.202;16.334;2022-08-01T02:01:58;7.07;;;5.25;;
40154;SDS011;25875;48.202;16.334;2022-08-01T02:04:29;8.70;;;5.20;;
40154;SDS011;25875;48.202;16.334;2022-08-01T02:06:58;6.15;;;4.63;;
40154;SDS011;25875;48.202;16.334;2022-08-01T02:09:26;6.82;;;5.22;;
40154;SDS011;25875;48.202;16.334;2022-08-01T02:11:55;5.40;;;4.85;;
40154;SDS011;25875;48.202;16.334;2022-08-01T02:14:24;5.00;;;4.32;;
40154;SDS011;25875;48.202;16.334;2022-08-01T02:16:55;5.57;;;4.30;;
40154;SDS011;25875;48.202;16.334;2022-08-01T02:19:24;4.97;;;3.50;;
40154;SDS011;25875;48.202;16.334;2022-08-01T02:21:54;6.53;;;3.78;;
40154;SDS011;25875;48.202;16.334;2022-08-01T02:24:25;4.50;;;4.10;;
40154;SDS011;25875;48.202;16.334;2022-08-01T02:27:03;4.15;;;3.35;;
40154;SDS011;25875;48.202;16.334;2022-08-01T02:29:36;5.65;;;3.28;;
40154;SDS011;25875;48.202;16.334;2022-08-01T02:32:09;4.53;;;3.57;;
40154;SDS011;25875;48.202;16.334;2022-08-01T02:34:38;4.45;;;3.60;;
40154;SDS011;25875;48.202;16.334;2022-08-01T02:37:07;5.18;;;3.40;;
40154;SDS011;25875;48.202;16.334;2022-08-01T02:39:36;3.50;;;3.00;;
40154;SDS011;25875;48.202;16.334;2022-08-01T02:42:06;4.72;;;3.28;;
40154;SDS011;25875;48.202;16.334;2022-08-01T02:44:37;3.50;;;3.05;;
40154;SDS011;25875;48.202;16.334;2022-08-01T02:47:09;3.63;;;3.05;;
40154;SDS011;25875;48.202;16.334;2022-08-01T02:49:39;4.97;;;3.63;;
40154;SDS011;25875;48.202;16.334;2022-08-01T02:52:10;6.68;;;4.35;;
40154;SDS011;25875;48.202;16.334;2022-08-01T02:54:41;6.57;;;4.88;;
40154;SDS011;25875;48.202;16.334;2022-08-01T02:57:11;5.85;;;4.63;;
40154;SDS011;25875;48.202;16.334;2022-08-01T02:59:41;6.30;;;5.70;;
40154;SDS011;25875;48.202;16.334;2022-08-01T03:02:10;5.45;;;4.95;;
40154;SDS011;25875;48.202;16.334;2022-08-01T03:04:40;6.97;;;5.53;;
40154;SDS011;25875;48.202;16.334;2022-08-01T03:07:09;5.32;;;4.82;;
40154;SDS011;25875;48.202;16.334;2022-08-01T03:09:43;5.72;;;4.75;;
40154;SDS011;25875;48.202;16.334;2022-08-01T03:12:13;10.00;;;6.35;;
40154;SDS011;25875;48.202;16.334;2022-08-01T03:14:42;6.32;;;5.00;;
40154;SDS011;25875;48.202;16.334;2022-08-01T03:17:14;5.03;;;3.97;;
40154;SDS011;25875;48.202;16.334;2022-08-01T03:19:43;7.10;;;4.88;;
40154;SDS011;25875;48.202;16.334;2022-08-01T03:22:12;4.70;;;3.72;;
40154;SDS011;25875;48.202;16.334;2022-08-01T03:24:42;4.05;;;3.50;;
40154;SDS011;25875;48.202;16.334;2022-08-01T03:27:14;4.63;;;3.20;;
40154;SDS011;25875;48.202;16.334;2022-08-01T03:29:42;6.13;;;4.68;;
40154;SDS011;25875;48.202;16.334;2022-08-01T03:32:11;11.60;;;8.98;;
40154;SDS011;25875;48.202;16.334;2022-08-01T03:34:41;11.63;;;7.88;;
40154;SDS011;25875;48.202;16.334;2022-08-01T03:37:11;14.10;;;11.48;;
40154;SDS011;25875;48.202;16.334;2022-08-01T03:39:43;9.70;;;7.85;;
40154;SDS011;25875;48.202;16.334;2022-08-01T03:42:14;5.65;;;5.05;;
40154;SDS011;25875;48.202;16.334;2022-08-01T03:44:46;6.70;;;5.32;;
40154;SDS011;25875;48.202;16.334;2022-08-01T03:47:19;6.38;;;5.28;;
40154;SDS011;25875;48.202;16.334;2022-08-01T03:49:52;6.27;;;5.13;;
40154;SDS011;25875;48.202;16.334;2022-08-01T03:52:20;6.63;;;4.78;;
40154;SDS011;25875;48.202;16.334;2022-08-01T03:54:49;8.20;;;4.60;;
40154;SDS011;25875;48.202;16.334;2022-08-01T03:57:21;5.35;;;3.92;;
40154;SDS011;25875;48.202;16.334;2022-08-01T03:59:50;5.95;;;3.90;;
40154;SDS011;25875;48.202;16.334;2022-08-01T04:02:19;7.03;;;4.13;;
40154;SDS011;25875;48.202;16.334;2022-08-01T04:04:48;6.18;;;4.03;;
40154;SDS011;25875;48.202;16.334;2022-08-01T04:07:22;5.40;;;3.40;;
40154;SDS011;25875;48.202;16.334;2022-08-01T04:09:50;4.38;;;2.97;;
40154;SDS011;25875;48.202;16.334;2022-08-01T04:12:18;6.65;;;4.18;;
40154;SDS011;25875;48.202;16.334;2022-08-01T04:14:45;4.68;;;4.00;;
40154;SDS011;25875;48.202;16.334;2022-08-01T04:17:12;4.78;;;3.88;;
40154;SDS011;25875;48.202;16.334;2022-08-01T04:19:41;4.93;;;3.35;;
40154;SDS011;25875;48.202;16.334;2022-08-01T04:22:10;4.55;;;3.80;;
40154;SDS011;25875;48.202;16.334;2022-08-01T04:24:39;4.15;;;3.53;;
40154;SDS011;25875;48.202;16.334;2022-08-01T04:27:10;4.43;;;3.58;;
40154;SDS011;25875;48.202;16.334;2022-08-01T04:29:39;4.05;;;3.00;;
40154;SDS011;25875;48.202;16.334;2022-08-01T04:32:11;3.58;;;3.08;;
40154;SDS011;25875;48.202;16.334;2022-08-01T04:34:42;5.00;;;2.85;;
40154;SDS011;25875;48.202;16.334;2022-08-01T04:37:12;4.35;;;3.17;;
40154;SDS011;25875;48.202;16.334;2022-08-01T04:39:43;5.28;;;3.38;;
40154;SDS011;25875;48.202;16.334;2022-08-01T04:42:12;6.45;;;3.42;;
40154;SDS011;25875;48.202;16.334;2022-08-01T04:44:41;4.18;;;3.03;;
40154;SDS011;25875;48.202;16.334;2022-08-01T04:47:09;6.82;;;3.40;;
40154;SDS011;25875;48.202;16.334;2022-08-01T04:49:37;3.53;;;2.78;;
40154;SDS011;25875;48.202;16.334;2022-08-01T04:52:08;4.15;;;2.65;;
40154;SDS011;25875;48.202;16.334;2022-08-01T04:54:35;4.93;;;3.00;;
40154;SDS011;25875;48.202;16.334;2022-08-01T04:57:03;6.70;;;3.22;;
40154;SDS011;25875;48.202;16.334;2022-08-01T04:59:31;5.13;;;2.60;;
40154;SDS011;25875;48.202;16.334;2022-08-01T05:02:07;4.28;;;3.03;;
40154;SDS011;25875;48.202;16.334;2022-08-01T05:04:35;3.22;;;2.47;;
40154;SDS011;25875;48.202;16.334;2022-08-01T05:07:03;5.07;;;2.83;;
40154;SDS011;25875;48.202;16.334;2022-08-01T05:09:32;4.20;;;2.72;;
40154;SDS011;25875;48.202;16.334;2022-08-01T05:12:01;3.50;;;2.63;;
40154;SDS011;25875;48.202;16.334;2022-08-01T05:14:30;3.00;;;2.42;;
40154;SDS011;25875;48.202;16.334;2022-08-01T05:16:58;3.10;;;2.53;;
40154;SDS011;25875;48.202;16.334;2022-08-01T05:19:25;5.97;;;3.17;;
40154;SDS011;25875;48.202;16.334;2022-08-01T05:21:52;4.25;;;2.97;;
40154;SDS011;25875;48.202;16.334;2022-08-01T05:24:20;8.45;;;3.35;;
40154;SDS011;25875;48.202;16.334;2022-08-01T05:26:49;5.15;;;2.83;;
40154;SDS011;25875;48.202;16.334;2022-08-01T05:29:16;4.28;;;2.85;;
40154;SDS011;25875;48.202;16.334;2022-08-01T05:31:43;4.10;;;3.20;;
40154;SDS011;25875;48.202;16.334;2022-08-01T05:34:11;4.15;;;2.90;;
40154;SDS011;25875;48.202;16.334;2022-08-01T05:36:38;5.80;;;3.38;;
40154;SDS011;25875;48.202;16.334;2022-08-01T05:39:05;4.38;;;3.55;;
40154;SDS011;25875;48.202;16.334;2022-08-01T05:41:32;4.28;;;2.83;;
40154;SDS011;25875;48.202;16.334;2022-08-01T05:44:01;5.15;;;3.22;;
40154;SDS011;25875;48.202;16.334;2022-08-01T05:46:28;3.65;;;2.90;;
40154;SDS011;25875;48.202;16.334;2022-08-01T05:48:56;4.65;;;3.03;;
40154;SDS011;25875;48.202;16.334;2022-08-01T05:51:24;3.67;;;2.92;;
40154;SDS011;25875;48.202;16.334;2022-08-01T05:53:51;4.82;;;2.70;;
40154;SDS011;25875;48.202;16.334;2022-08-01T05:56:19;3.92;;;2.85;;
40154;SDS011;25875;48.202;16.334;2022-08-01T05:58:47;4.40;;;2.53;;
40154;SDS011;25875;48.202;16.334;2022-08-01T06:01:17;3.60;;;2.90;;
40154;SDS011;25875;48.202;16.334;2022-08-01T06:03:44;4.15;;;2.72;;
40154;SDS011;25875;48.202;16.334;2022-08-01T06:06:12;4.07;;;2.83;;
40154;SDS011;25875;48.202;16.334;2022-08-01T06:08:40;4.13;;;2.95;;
40154;SDS011;25875;48.202;16.334;2022-08-01T06:11:08;4.57;;;3.45;;
40154;SDS011;25875;48.202;16.334;2022-08-01T06:13:35;4.28;;;2.85;;
40154;SDS011;25875;48.202;16.334;2022-08-01T06:16:02;5.47;;;3.10;;
40154;SDS011;25875;48.202;16.334;2022-08-01T06:18:31;5.00;;;3.15;;
40154;SDS011;25875;48.202;16.334;2022-08-01T06:20:58;5.68;;;3.40;;
40154;SDS011;25875;48.202;16.334;2022-08-01T06:23:25;4.30;;;3.13;;
40154;SDS011;25875;48.202;16.334;2022-08-01T06:25:53;3.70;;;2.70;;
40154;SDS011;25875;48.202;16.334;2022-08-01T06:28:21;3.75;;;2.72;;
40154;SDS011;25875;48.202;16.334;2022-08-01T06:30:48;4.50;;;3.35;;
40154;SDS011;25875;48.202;16.334;2022-08-01T06:33:15;4.18;;;3.25;;
40154;SDS011;25875;48.202;16.334;2022-08-01T06:35:44;4.38;;;2.90;;
40154;SDS011;25875;48.202;16.334;2022-08-01T06:38:11;3.60;;;2.78;;
40154;SDS011;25875;48.202;16.334;2022-08-01T06:40:38;4.75;;;2.65;;
40154;SDS011;25875;48.202;16.334;2022-08-01T06:43:06;4.63;;;3.20;;
40154;SDS011;25875;48.202;16.334;2022-08-01T06:45:33;3.78;;;2.60;;
40154;SDS011;25875;48.202;16.334;2022-08-01T06:48:02;4.50;;;3.10;;
40154;SDS011;25875;48.202;16.334;2022-08-01T06:50:30;3.20;;;2.70;;
40154;SDS011;25875;48.202;16.334;2022-08-01T06:52:59;5.28;;;3.50;;
40154;SDS011;25875;48.202;16.334;2022-08-01T06:55:27;3.10;;;2.55;;
40154;SDS011;25875;48.202;16.334;2022-08-01T06:57:54;4.00;;;2.95;;
40154;SDS011;25875;48.202;16.334;2022-08-01T07:00:22;3.97;;;2.70;;
40154;SDS011;25875;48.202;16.334;2022-08-01T07:02:51;3.92;;;2.83;;
40154;SDS011;25875;48.202;16.334;2022-08-01T07:05:19;4.70;;;2.40;;
40154;SDS011;25875;48.202;16.334;2022-08-01T07:07:46;3.97;;;2.65;;
40154;SDS011;25875;48.202;16.334;2022-08-01T07:10:15;3.15;;;2.38;;
40154;SDS011;25875;48.202;16.334;2022-08-01T07:12:42;4.68;;;3.10;;
40154;SDS011;25875;48.202;16.334;2022-08-01T07:15:10;4.15;;;2.85;;
40154;SDS011;25875;48.202;16.334;2022-08-01T07:17:38;3.72;;;2.50;;
40154;SDS011;25875;48.202;16.334;2022-08-01T07:20:06;3.72;;;2.38;;
40154;SDS011;25875;48.202;16.334;2022-08-01T07:22:35;3.78;;;2.60;;
40154;SDS011;25875;48.202;16.334;2022-08-01T07:25:03;3.58;;;2.63;;
40154;SDS011;25875;48.202;16.334;2022-08-01T07:27:32;5.07;;;2.65;;
40154;SDS011;25875;48.202;16.334;2022-08-01T07:30:00;3.10;;;2.40;;
40154;SDS011;25875;48.202;16.334;2022-08-01T07:32:27;4.07;;;3.33;;
40154;SDS011;25875;48.202;16.334;2022-08-01T07:34:55;4.75;;;2.70;;
40154;SDS011;25875;48.202;16.334;2022-08-01T07:37:22;3.17;;;2.47;;
40154;SDS011;25875;48.202;16.334;2022-08-01T07:39:50;3.28;;;2.42;;
40154;SDS011;25875;48.202;16.334;2022-08-01T07:42:17;3.80;;;2.60;;
40154;SDS011;25875;48.202;16.334;2022-08-01T07:44:46;3.72;;;2.20;;
40154;SDS011;25875;48.202;16.334;2022-08-01T07:47:14;3.80;;;2.83;;
40154;SDS011;25875;48.202;16.334;2022-08-01T07:49:41;4.07;;;3.00;;
40154;SDS011;25875;48.202;16.334;2022-08-01T07:52:08;4.10;;;2.90;;
40154;SDS011;25875;48.202;16.334;2022-08-01T07:54:36;3.90;;;2.58;;
40154;SDS011;25875;48.202;16.334;2022-08-01T07:57:03;3.50;;;2.72;;
40154;SDS011;25875;48.202;16.334;2022-08-01T07:59:31;3.80;;;2.60;;
40154;SDS011;25875;48.202;16.334;2022-08-01T08:01:59;3.10;;;2.40;;
40154;SDS011;25875;48.202;16.334;2022-08-01T08:04:27;4.57;;;2.65;;
40154;SDS011;25875;48.202;16.334;2022-08-01T08:06:54;5.10;;;3.08;;
40154;SDS011;25875;48.202;16.334;2022-08-01T08:09:21;3.45;;;2.53;;
40154;SDS011;25875;48.202;16.334;2022-08-01T08:11:49;3.75;;;2.70;;
40154;SDS011;25875;48.202;16.334;2022-08-01T08:14:16;6.53;;;2.33;;
40154;SDS011;25875;48.202;16.334;2022-08-01T08:16:44;4.75;;;3.15;;
40154;SDS011;25875;48.202;16.334;2022-08-01T08:19:13;3.22;;;2.50;;
40154;SDS011;25875;48.202;16.334;2022-08-01T08:21:41;3.03;;;2.53;;
40154;SDS011;25875;48.202;16.334;2022-08-01T08:24:08;5.45;;;2.70;;
40154;SDS011;25875;48.202;16.334;2022-08-01T08:26:50;3.03;;;2.42;;
40154;SDS011;25875;48.202;16.334;2022-08-01T08:29:19;4.43;;;3.17;;
40154;SDS011;25875;48.202;16.334;2022-08-01T08:31:47;3.85;;;2.20;;
40154;SDS011;25875;48.202;16.334;2022-08-01T08:34:17;4.78;;;2.70;;
40154;SDS011;25875;48.202;16.334;2022-08-01T08:36:45;2.92;;;2.20;;
40154;SDS011;25875;48.202;16.334;2022-08-01T08:39:12;3.83;;;2.92;;
40154;SDS011;25875;48.202;16.334;2022-08-01T08:41:39;3.15;;;2.45;;
40154;SDS011;25875;48.202;16.334;2022-08-01T08:44:07;4.65;;;2.90;;
40154;SDS011;25875;48.202;16.334;2022-08-01T08:46:37;4.35;;;2.30;;
40154;SDS011;25875;48.202;16.334;2022-08-01T08:49:08;5.95;;;2.90;;
40154;SDS011;25875;48.202;16.334;2022-08-01T08:51:39;4.45;;;2.75;;
40154;SDS011;25875;48.202;16.334;2022-08-01T08:54:08;4.82;;;3.15;;
40154;SDS011;25875;48.202;16.334;2022-08-01T08:56:38;6.22;;;2.70;;
40154;SDS011;25875;48.202;16.334;2022-08-01T08:59:05;3.80;;;2.45;;
40154;SDS011;25875;48.202;16.334;2022-08-01T09:01:33;3.58;;;2.50;;
40154;SDS011;25875;48.202;16.334;2022-08-01T09:04:01;3.47;;;2.53;;
40154;SDS011;25875;48.202;16.334;2022-08-01T09:06:28;4.13;;;2.67;;
40154;SDS011;25875;48.202;16.334;2022-08-01T09:08:57;3.53;;;2.72;;
40154;SDS011;25875;48.202;16.334;2022-08-01T09:11:25;3.75;;;2.50;;
40154;SDS011;25875;48.202;16.334;2022-08-01T09:14:03;4.72;;;3.13;;
40154;SDS011;25875;48.202;16.334;2022-08-01T09:16:33;5.53;;;2.88;;
40154;SDS011;25875;48.202;16.334;2022-08-01T09:19:11;3.53;;;3.08;;
40154;SDS011;25875;48.202;16.334;2022-08-01T09:21:39;3.13;;;2.50;;
40154;SDS011;25875;48.202;16.334;2022-08-01T09:24:24;4.10;;;2.88;;
40154;SDS011;25875;48.202;16.334;2022-08-01T09:26:52;3.05;;;2.42;;
40154;SDS011;25875;48.202;16.334;2022-08-01T09:29:20;4.05;;;2.80;;
40154;SDS011;25875;48.202;16.334;2022-08-01T09:31:51;3.45;;;2.88;;
40154;SDS011;25875;48.202;16.334;2022-08-01T09:34:23;3.30;;;2.75;;
40154;SDS011;25875;48.202;16.334;2022-08-01T09:36:52;3.22;;;2.78;;
40154;SDS011;25875;48.202;16.334;2022-08-01T09:39:24;3.47;;;2.70;;
40154;SDS011;25875;48.202;16.334;2022-08-01T09:41:54;4.65;;;3.05;;
40154;SDS011;25875;48.202;16.334;2022-08-01T09:44:36;3.95;;;2.85;;
40154;SDS011;25875;48.202;16.334;2022-08-01T09:47:04;7.38;;;2.70;;
40154;SDS011;25875;48.202;16.334;2022-08-01T09:49:33;3.20;;;2.42;;
40154;SDS011;25875;48.202;16.334;2022-08-01T09:52:10;4.53;;;2.65;;
40154;SDS011;25875;48.202;16.334;2022-08-01T09:54:41;3.53;;;2.72;;
40154;SDS011;25875;48.202;16.334;2022-08-01T09:57:10;4.28;;;3.20;;
40154;SDS011;25875;48.202;16.334;2022-08-01T09:59:40;3.70;;;2.78;;
40154;SDS011;25875;48.202;16.334;2022-08-01T10:02:09;4.18;;;3.50;;
40154;SDS011;25875;48.202;16.334;2022-08-01T10:04:48;3.50;;;2.85;;
40154;SDS011;25875;48.202;16.334;2022-08-01T10:07:16;3.83;;;2.72;;
40154;SDS011;25875;48.202;16.334;2022-08-01T10:09:46;3.63;;;3.00;;
40154;SDS011;25875;48.202;16.334;2022-08-01T10:12:14;3.58;;;2.95;;
40154;SDS011;25875;48.202;16.334;2022-08-01T10:14:44;6.28;;;3.55;;
40154;SDS011;25875;48.202;16.334;2022-08-01T10:17:15;4.22;;;3.30;;
40154;SDS011;25875;48.202;16.334;2022-08-01T10:19:44;5.57;;;4.10;;
40154;SDS011;25875;48.202;16.334;2022-08-01T10:22:12;4.75;;;3.90;;
40154;SDS011;25875;48.202;16.334;2022-08-01T10:24:42;4.20;;;2.85;;
40154;SDS011;25875;48.202;16.334;2022-08-01T10:27:13;3.65;;;2.92;;
40154;SDS011;25875;48.202;16.334;2022-08-01T10:29:42;3.75;;;3.33;;
40154;SDS011;25875;48.202;16.334;2022-08-01T10:32:14;9.77;;;3.38;;
40154;SDS011;25875;48.202;16.334;2022-08-01T10:34:42;3.72;;;3.20;;
40154;SDS011;25875;48.202;16.334;2022-08-01T10:37:10;4.15;;;3.45;;
40154;SDS011;25875;48.202;16.334;2022-08-01T10:39:40;4.40;;;3.63;;
40154;SDS011;25875;48.202;16.334;2022-08-01T10:42:08;3.90;;;3.15;;
40154;SDS011;25875;48.202;16.334;2022-08-01T10:44:39;4.43;;;2.97;;
40154;SDS011;25875;48.202;16.334;2022-08-01T10:47:08;3.10;;;2.65;;
40154;SDS011;25875;48.202;16.334;2022-08-01T10:49:39;3.78;;;2.88;;
40154;SDS011;25875;48.202;16.334;2022-08-01T10:52:13;3.70;;;3.30;;
40154;SDS011;25875;48.202;16.334;2022-08-01T10:54:41;3.42;;;2.83;;
40154;SDS011;25875;48.202;16.334;2022-08-01T10:57:10;3.70;;;2.78;;
40154;SDS011;25875;48.202;16.334;2022-08-01T10:59:48;3.80;;;2.75;;
40154;SDS011;25875;48.202;16.334;2022-08-01T11:02:25;4.40;;;3.83;;
40154;SDS011;25875;48.202;16.334;2022-08-01T11:04:55;6.03;;;3.45;;
40154;SDS011;25875;48.202;16.334;2022-08-01T11:07:34;6.25;;;3.53;;
40154;SDS011;25875;48.202;16.334;2022-08-01T11:10:10;4.22;;;3.38;;
40154;SDS011;25875;48.202;16.334;2022-08-01T11:12:48;5.25;;;3.65;;
40154;SDS011;25875;48.202;16.334;2022-08-01T11:15:18;5.25;;;3.72;;
40154;SDS011;25875;48.202;16.334;2022-08-01T11:17:53;4.38;;;3.78;;
40154;SDS011;25875;48.202;16.334;2022-08-01T11:20:22;4.20;;;3.00;;
40154;SDS011;25875;48.202;16.334;2022-08-01T11:26:10;3.72;;;2.95;;
40154;SDS011;25875;48.202;16.334;2022-08-01T11:28:39;3.55;;;2.75;;
40154;SDS011;25875;48.202;16.334;2022-08-01T11:31:34;5.85;;;3.20;;
40154;SDS011;25875;48.202;16.334;2022-08-01T11:34:01;3.88;;;2.95;;
40154;SDS011;25875;48.202;16.334;2022-08-01T11:36:29;4.45;;;3.05;;
40154;SDS011;25875;48.202;16.334;2022-08-01T11:39:12;3.40;;;2.67;;
40154;SDS011;25875;48.202;16.334;2022-08-01T11:41:44;6.38;;;3.42;;
40154;SDS011;25875;48.202;16.334;2022-08-01T11:44:13;3.72;;;2.85;;
40154;SDS011;25875;48.202;16.334;2022-08-01T11:46:47;5.53;;;2.95;;
40154;SDS011;25875;48.202;16.334;2022-08-01T11:49:25;3.70;;;3.10;;
40154;SDS011;25875;48.202;16.334;2022-08-01T11:51:56;5.50;;;3.10;;
40154;SDS011;25875;48.202;16.334;2022-08-01T11:54:26;4.57;;;2.83;;
40154;SDS011;25875;48.202;16.334;2022-08-01T11:56:55;3.53;;;3.00;;
40154;SDS011;25875;48.202;16.334;2022-08-01T11:59:23;3.85;;;2.83;;
40154;SDS011;25875;48.202;16.334;2022-08-01T12:01:52;5.22;;;3.10;;
40154;SDS011;25875;48.202;16.334;2022-08-01T12:04:19;7.13;;;3.20;;
40154;SDS011;25875;48.202;16.334;2022-08-01T12:06:47;3.60;;;2.63;;
40154;SDS011;25875;48.202;16.334;2022-08-01T12:09:15;5.63;;;3.55;;
40154;SDS011;25875;48.202;16.334;2022-08-01T12:11:46;3.80;;;3.17;;
40154;SDS011;25875;48.202;16.334;2022-08-01T12:14:20;3.75;;;2.80;;
40154;SDS011;25875;48.202;16.334;2022-08-01T12:16:49;2.97;;;2.53;;
40154;SDS011;25875;48.202;16.334;2022-08-01T12:19:20;4.10;;;3.05;;
40154;SDS011;25875;48.202;16.334;2022-08-01T12:22:07;6.70;;;3.38;;
40154;SDS011;25875;48.202;16.334;2022-08-01T12:24:37;3.42;;;2.67;;
40154;SDS011;25875;48.202;16.334;2022-08-01T12:27:05;3.33;;;2.60;;
40154;SDS011;25875;48.202;16.334;2022-08-01T12:29:34;3.35;;;2.63;;
40154;SDS011;25875;48.202;16.334;2022-08-01T12:32:13;3.83;;;2.30;;
40154;SDS011;25875;48.202;16.334;2022-08-01T12:34:48;4.60;;;2.65;;
40154;SDS011;25875;48.202;16.334;2022-08-01T12:37:16;4.47;;;2.65;;
40154;SDS011;25875;48.202;16.334;2022-08-01T12:39:44;3.72;;;2.13;;
40154;SDS011;25875;48.202;16.334;2022-08-01T12:42:13;5.05;;;2.97;;
40154;SDS011;25875;48.202;16.334;2022-08-01T12:44:42;2.70;;;1.80;;
40154;SDS011;25875;48.202;16.334;2022-08-01T12:47:13;5.80;;;2.28;;
40154;SDS011;25875;48.202;16.334;2022-08-01T12:49:42;4.45;;;2.03;;
40154;SDS011;25875;48.202;16.334;2022-08-01T12:52:10;4.15;;;2.30;;
40154;SDS011;25875;48.202;16.334;2022-08-01T12:57:30;3.03;;;2.08;;
40154;SDS011;25875;48.202;16.334;2022-08-01T13:00:05;3.45;;;2.08;;
40154;SDS011;25875;48.202;16.334;2022-08-01T13:02:36;3.75;;;2.00;;
40154;SDS011;25875;48.202;16.334;2022-08-01T13:05:05;3.38;;;2.15;;
40154;SDS011;25875;48.202;16.334;2022-08-01T13:07:34;3.08;;;2.00;;
40154;SDS011;25875;48.202;16.334;2022-08-01T13:10:07;4.03;;;2.38;;
40154;SDS011;25875;48.202;16.334;2022-08-01T13:12:35;3.33;;;2.45;;
40154;SDS011;25875;48.202;16.334;2022-08-01T13:15:18;3.00;;;2.42;;
40154;SDS011;25875;48.202;16.334;2022-08-01T13:17:52;3.92;;;2.20;;
40154;SDS011;25875;48.202;16.334;2022-08-01T13:20:27;5.45;;;2.80;;
40154;SDS011;25875;48.202;16.334;2022-08-01T13:25:48;6.80;;;3.35;;
40154;SDS011;25875;48.202;16.334;2022-08-01T13:28:17;5.40;;;2.88;;
40154;SDS011;25875;48.202;16.334;2022-08-01T13:30:53;4.53;;;2.92;;
40154;SDS011;25875;48.202;16.334;2022-08-01T13:33:23;3.55;;;2.47;;
40154;SDS011;25875;48.202;16.334;2022-08-01T13:35:51;5.50;;;2.88;;
40154;SDS011;25875;48.202;16.334;2022-08-01T13:38:19;3.00;;;2.42;;
40154;SDS011;25875;48.202;16.334;2022-08-01T13:41:07;7.10;;;3.10;;
40154;SDS011;25875;48.202;16.334;2022-08-01T13:43:34;3.63;;;2.45;;
40154;SDS011;25875;48.202;16.334;2022-08-01T13:46:01;3.53;;;2.28;;
40154;SDS011;25875;48.202;16.334;2022-08-01T13:48:31;4.70;;;2.10;;
40154;SDS011;25875;48.202;16.334;2022-08-01T13:50:59;3.67;;;2.05;;
40154;SDS011;25875;48.202;16.334;2022-08-01T13:53:27;3.25;;;2.00;;
40154;SDS011;25875;48.202;16.334;2022-08-01T13:55:54;5.85;;;2.30;;
40154;SDS011;25875;48.202;16.334;2022-08-01T13:58:22;3.13;;;2.22;;
40154;SDS011;25875;48.202;16.334;2022-08-01T14:00:49;3.00;;;1.80;;
40154;SDS011;25875;48.202;16.334;2022-08-01T14:03:17;3.80;;;2.95;;
40154;SDS011;25875;48.202;16.334;2022-08-01T14:05:45;3.33;;;2.40;;
40154;SDS011;25875;48.202;16.334;2022-08-01T14:08:13;2.95;;;1.90;;
40154;SDS011;25875;48.202;16.334;2022-08-01T14:10:40;2.60;;;1.98;;
40154;SDS011;25875;48.202;16.334;2022-08-01T14:13:09;3.67;;;1.90;;
40154;SDS011;25875;48.202;16.334;2022-08-01T14:15:36;5.13;;;2.00;;
40154;SDS011;25875;48.202;16.334;2022-08-01T14:18:04;2.90;;;2.10;;
40154;SDS011;25875;48.202;16.334;2022-08-01T14:20:32;4.15;;;2.45;;
40154;SDS011;25875;48.202;16.334;2022-08-01T14:23:01;2.90;;;1.98;;
40154;SDS011;25875;48.202;16.334;2022-08-01T14:25:28;4.75;;;3.38;;
40154;SDS011;25875;48.202;16.334;2022-08-01T14:27:56;3.30;;;2.22;;
40154;SDS011;25875;48.202;16.334;2022-08-01T14:30:24;2.95;;;2.10;;
40154;SDS011;25875;48.202;16.334;2022-08-01T14:32:51;3.92;;;2.40;;
40154;SDS011;25875;48.202;16.334;2022-08-01T14:35:18;5.53;;;2.42;;
40154;SDS011;25875;48.202;16.334;2022-08-01T14:37:46;3.35;;;2.15;;
40154;SDS011;25875;48.202;16.334;2022-08-01T14:40:15;5.38;;;2.38;;
40154;SDS011;25875;48.202;16.334;2022-08-01T14:42:42;2.75;;;2.05;;
40154;SDS011;25875;48.202;16.334;2022-08-01T14:45:10;2.53;;;1.70;;
40154;SDS011;25875;48.202;16.334;2022-08-01T14:47:39;3.22;;;2.03;;
40154;SDS011;25875;48.202;16.334;2022-08-01T14:50:08;4.75;;;2.90;;
40154;SDS011;25875;48.202;16.334;2022-08-01T14:52:38;2.30;;;1.70;;
40154;SDS011;25875;48.202;16.334;2022-08-01T14:55:06;2.72;;;2.10;;
40154;SDS011;25875;48.202;16.334;2022-08-01T14:57:37;2.50;;;1.85;;